Time;durP1;ratioP1;P1;durP2;ratioP2;P2;SDS_P1;SDS_P2;PMS_P1;PMS_P2;Temp;Humidity;BMP_temperature;BMP_pressure;BME280_temperature;BME280_humidity;BME280_pressure;Samples;Min_cycle;Max_cycle;Signal;HPM_P1;HPM_P2
2023/05/05 00:00:59;;;;;;;4.23;3.60;;;10.50;99.90;;;;;;4986467;28;20554;-68
2023/05/05 00:03:26;;;;;;;6.57;3.07;;;10.50;99.90;;;;;;5004704;28;20458;-69
2023/05/05 00:05:53;;;;;;;7.20;3.23;;;10.50;99.90;;;;;;5013317;28;20428;-69
2023/05/05 00:08:19;;;;;;;5.07;3.20;;;10.50;99.90;;;;;;5015470;28;20410;-68
2023/05/05 00:10:49;;;;;;;6.03;3.50;;;10.40;99.90;;;;;;5020532;28;20840;-68
2023/05/05 00:13:15;;;;;;;7.90;4.27;;;10.40;99.90;;;;;;5017686;28;20787;-68
2023/05/05 00:15:43;;;;;;;6.27;3.00;;;10.50;99.90;;;;;;5023525;28;20416;-68
2023/05/05 00:18:09;;;;;;;4.60;3.70;;;10.40;99.90;;;;;;5020801;28;20898;-69
2023/05/05 00:20:35;;;;;;;3.80;3.00;;;10.40;99.90;;;;;;5014501;28;20446;-69
2023/05/05 00:23:01;;;;;;;7.57;3.63;;;10.40;99.90;;;;;;5002814;28;20479;-69
2023/05/05 00:25:26;;;;;;;4.97;2.67;;;10.40;99.90;;;;;;5013434;28;20229;-69
2023/05/05 00:27:52;;;;;;;7.43;3.57;;;10.30;99.90;;;;;;5021501;28;20184;-69
2023/05/05 00:30:17;;;;;;;4.97;2.83;;;10.40;99.90;;;;;;5005061;28;20356;-69
2023/05/05 00:32:46;;;;;;;8.53;3.50;;;10.40;99.90;;;;;;5001788;28;20226;-68
2023/05/05 00:35:11;;;;;;;6.10;3.20;;;10.40;99.90;;;;;;5009888;28;20179;-69
2023/05/05 00:37:37;;;;;;;8.37;2.90;;;10.40;99.90;;;;;;5015392;28;20415;-69
2023/05/05 00:40:03;;;;;;;4.37;3.20;;;10.40;99.90;;;;;;5009411;28;20211;-69
2023/05/05 00:42:41;;;;;;;3.70;3.37;;;10.40;99.90;;;;;;5003379;28;20542;-69
2023/05/05 00:45:08;;;;;;;7.60;3.23;;;10.40;99.90;;;;;;5014278;28;20263;-69
2023/05/05 00:47:34;;;;;;;8.37;3.27;;;10.40;99.90;;;;;;5024209;28;20402;-69
2023/05/05 00:50:01;;;;;;;6.80;3.60;;;10.40;99.90;;;;;;5004247;28;20477;-69
2023/05/05 00:52:26;;;;;;;4.80;2.70;;;10.40;99.90;;;;;;5018951;28;20645;-69
2023/05/05 00:54:52;;;;;;;5.17;2.90;;;10.40;99.90;;;;;;5024282;28;20430;-69
2023/05/05 00:57:19;;;;;;;5.20;2.80;;;10.40;99.90;;;;;;5018246;28;20642;-69
2023/05/05 00:59:45;;;;;;;7.30;3.43;;;10.40;99.90;;;;;;5022698;28;20430;-69
2023/05/05 01:02:11;;;;;;;8.13;3.00;;;10.40;99.90;;;;;;5000079;28;20437;-69
2023/05/05 01:04:37;;;;;;;6.50;2.80;;;10.40;99.90;;;;;;4998920;28;21053;-69
2023/05/05 01:07:32;;;;;;;2.43;2.23;;;10.40;99.90;;;;;;5008230;28;20451;-69
2023/05/05 01:10:29;;;;;;;5.87;2.93;;;10.40;99.90;;;;;;4984538;28;20230;-69
2023/05/05 01:13:04;;;;;;;7.87;3.30;;;10.40;99.90;;;;;;5016815;28;20450;-69
2023/05/05 01:15:33;;;;;;;6.40;2.30;;;10.40;99.90;;;;;;5011055;28;20417;-69
2023/05/05 01:18:12;;;;;;;3.63;2.63;;;10.40;99.90;;;;;;5019584;28;20439;-69
2023/05/05 01:21:02;;;;;;;3.37;2.77;;;10.40;99.90;;;;;;5027129;28;20446;-69
2023/05/05 01:24:06;;;;;;;5.37;3.10;;;10.40;99.90;;;;;;4983603;28;20477;-69
2023/05/05 01:26:51;;;;;;;6.97;3.10;;;10.40;99.90;;;;;;5021318;28;20760;-69
2023/05/05 01:29:39;;;;;;;6.53;3.17;;;10.40;99.90;;;;;;5021323;28;20472;-69
2023/05/05 01:32:19;;;;;;;3.07;2.53;;;10.30;99.90;;;;;;5010872;28;20484;-69
2023/05/05 01:35:00;;;;;;;2.90;2.70;;;10.30;99.90;;;;;;5020556;28;20454;-69
2023/05/05 01:37:29;;;;;;;5.17;2.70;;;10.30;99.90;;;;;;5011483;28;20441;-69
2023/05/05 01:39:58;;;;;;;13.03;4.13;;;10.20;99.90;;;;;;5005055;28;20543;-69
2023/05/05 01:42:25;;;;;;;6.33;3.60;;;10.20;99.90;;;;;;5009029;28;20882;-69
2023/05/05 01:44:53;;;;;;;4.43;2.97;;;10.20;99.90;;;;;;5022272;28;20807;-69
2023/05/05 01:47:21;;;;;;;4.93;3.30;;;10.10;99.90;;;;;;5016557;28;21240;-69
2023/05/05 01:49:48;;;;;;;4.10;3.03;;;10.10;99.90;;;;;;5011835;28;20471;-69
2023/05/05 01:52:15;;;;;;;5.77;3.20;;;10.10;99.90;;;;;;4979227;28;20443;-69
2023/05/05 01:54:43;;;;;;;4.50;3.40;;;10.10;99.90;;;;;;5000679;28;20463;-69
2023/05/05 01:57:10;;;;;;;5.00;3.40;;;10.10;99.90;;;;;;4998015;28;20545;-69
2023/05/05 01:59:38;;;;;;;4.00;2.47;;;10.10;99.90;;;;;;5000158;28;20853;-69
2023/05/05 02:02:07;;;;;;;12.33;4.00;;;10.00;99.90;;;;;;5003124;28;20805;-68
2023/05/05 02:04:34;;;;;;;10.70;3.30;;;10.00;99.90;;;;;;5001777;28;20461;-69
2023/05/05 02:07:02;;;;;;;5.07;3.33;;;9.90;99.90;;;;;;4996626;28;20952;-69
2023/05/05 02:09:29;;;;;;;7.60;3.90;;;9.90;99.90;;;;;;4997970;28;20513;-69
2023/05/05 02:11:57;;;;;;;4.43;3.40;;;9.80;99.90;;;;;;5001615;28;20427;-68
2023/05/05 02:14:27;;;;;;;7.73;3.80;;;9.80;99.90;;;;;;4999418;28;20535;-69
2023/05/05 02:16:55;;;;;;;6.63;3.50;;;9.70;99.90;;;;;;5002277;28;20534;-68
2023/05/05 02:19:27;;;;;;;6.90;3.00;;;9.70;99.90;;;;;;5001038;28;20540;-69
2023/05/05 02:21:53;;;;;;;7.57;3.53;;;9.70;99.90;;;;;;4997561;28;20518;-69
2023/05/05 02:24:18;;;;;;;6.50;3.17;;;9.70;99.90;;;;;;4997762;28;20519;-70
2023/05/05 02:26:49;;;;;;;9.90;4.07;;;9.60;99.90;;;;;;4996728;28;20199;-68
2023/05/05 02:29:30;;;;;;;7.80;4.23;;;9.60;99.90;;;;;;5004632;28;20207;-68
2023/05/05 02:32:03;;;;;;;5.43;2.70;;;9.60;99.90;;;;;;5000800;28;20458;-68
2023/05/05 02:34:35;;;;;;;5.87;3.33;;;9.70;99.90;;;;;;4999106;28;20476;-68
2023/05/05 02:37:04;;;;;;;5.03;2.87;;;9.70;99.90;;;;;;4997158;28;20953;-68
2023/05/05 02:39:39;;;;;;;5.20;3.60;;;9.60;99.90;;;;;;4999640;28;20464;-69
2023/05/05 02:42:08;;;;;;;5.93;3.10;;;9.60;99.90;;;;;;4983466;28;20513;-68
2023/05/05 02:44:36;;;;;;;10.07;3.73;;;9.60;99.90;;;;;;5000235;28;21055;-69
2023/05/05 02:47:03;;;;;;;4.40;3.77;;;9.70;99.90;;;;;;4984698;28;20454;-69
2023/05/05 02:49:29;;;;;;;10.43;3.20;;;9.70;99.90;;;;;;5004208;28;20477;-68
2023/05/05 02:51:56;;;;;;;6.90;3.87;;;9.70;99.90;;;;;;5001950;28;20750;-69
2023/05/05 02:54:22;;;;;;;5.53;3.83;;;9.70;99.90;;;;;;4997239;28;20290;-69
2023/05/05 02:56:50;;;;;;;3.80;2.70;;;9.60;99.90;;;;;;4995218;28;20565;-68
2023/05/05 02:59:35;;;;;;;6.17;3.47;;;9.60;99.90;;;;;;5001958;28;20193;-68
2023/05/05 03:02:27;;;;;;;9.00;3.33;;;9.60;99.90;;;;;;5002670;28;20447;-68
2023/05/05 03:05:03;;;;;;;3.07;2.80;;;9.60;99.90;;;;;;4998640;28;20460;-68
2023/05/05 03:07:39;;;;;;;7.27;4.00;;;9.60;99.90;;;;;;5000419;28;20437;-68
2023/05/05 03:10:09;;;;;;;4.43;3.20;;;9.60;99.90;;;;;;4996324;28;20479;-68
2023/05/05 03:12:55;;;;;;;4.03;2.97;;;9.60;99.90;;;;;;4997874;28;20439;-68
2023/05/05 03:15:44;;;;;;;5.63;3.43;;;9.60;99.90;;;;;;4998914;28;20435;-68
2023/05/05 03:18:11;;;;;;;4.57;3.20;;;9.60;99.90;;;;;;4998837;28;20875;-68
2023/05/05 03:20:38;;;;;;;5.17;3.20;;;9.60;99.90;;;;;;4996147;28;20998;-68
2023/05/05 03:23:04;;;;;;;6.80;3.70;;;9.60;99.90;;;;;;5000402;28;21342;-68
2023/05/05 03:25:50;;;;;;;5.00;3.13;;;9.60;99.90;;;;;;4998513;28;21095;-69
2023/05/05 03:28:17;;;;;;;6.50;3.47;;;9.60;99.90;;;;;;4999955;28;20179;-68
2023/05/05 03:30:43;;;;;;;5.20;3.30;;;9.60;99.90;;;;;;4996336;28;21572;-69
2023/05/05 03:33:10;;;;;;;6.37;3.60;;;9.60;99.90;;;;;;4997635;28;20637;-69
2023/05/05 03:35:35;;;;;;;4.10;2.83;;;9.60;99.90;;;;;;4979729;28;20185;-68
2023/05/05 03:38:01;;;;;;;7.20;3.10;;;9.60;99.90;;;;;;5002725;28;20519;-69
2023/05/05 03:40:27;;;;;;;6.53;2.67;;;9.50;99.90;;;;;;4996167;28;20188;-68
2023/05/05 03:42:52;;;;;;;4.10;3.10;;;9.50;99.90;;;;;;5001215;28;20204;-69
2023/05/05 03:45:18;;;;;;;4.07;3.27;;;9.50;99.90;;;;;;5003455;28;20215;-68
2023/05/05 03:47:43;;;;;;;5.63;3.53;;;9.50;99.90;;;;;;4996452;28;20189;-68
2023/05/05 03:50:09;;;;;;;3.63;2.87;;;9.50;99.90;;;;;;4996790;28;20583;-67
2023/05/05 03:52:35;;;;;;;3.87;2.77;;;9.50;99.90;;;;;;4999351;28;20198;-69
2023/05/05 03:55:00;;;;;;;5.27;3.17;;;9.50;99.90;;;;;;4996664;28;21172;-68
2023/05/05 03:57:26;;;;;;;4.80;3.20;;;9.60;99.90;;;;;;4996311;28;20336;-68
2023/05/05 03:59:52;;;;;;;4.37;3.77;;;9.60;99.90;;;;;;4998264;28;20532;-69
2023/05/05 04:02:18;;;;;;;5.63;3.20;;;9.50;99.90;;;;;;4986505;28;20599;-69
2023/05/05 04:04:43;;;;;;;9.97;3.50;;;9.50;99.90;;;;;;5000847;28;20472;-68
2023/05/05 04:07:10;;;;;;;6.93;3.40;;;9.50;99.90;;;;;;5015115;28;20209;-68
2023/05/05 04:09:35;;;;;;;5.73;3.00;;;9.50;99.90;;;;;;5019932;28;20204;-68
2023/05/05 04:12:01;;;;;;;4.10;3.30;;;9.50;99.90;;;;;;5010391;28;20426;-68
2023/05/05 04:14:27;;;;;;;5.53;3.07;;;9.60;99.90;;;;;;5011347;28;20748;-68
2023/05/05 04:16:53;;;;;;;6.87;3.33;;;9.60;99.90;;;;;;4996053;28;20477;-68
2023/05/05 04:19:19;;;;;;;5.50;3.40;;;9.60;99.90;;;;;;4998771;28;20571;-69
2023/05/05 04:21:44;;;;;;;6.33;3.83;;;9.60;99.90;;;;;;4998003;28;20219;-68
2023/05/05 04:24:10;;;;;;;4.23;3.40;;;9.60;99.90;;;;;;4999225;28;20244;-68
2023/05/05 04:26:36;;;;;;;5.20;3.40;;;9.60;99.90;;;;;;4999766;28;21087;-68
2023/05/05 04:29:01;;;;;;;6.97;3.37;;;9.70;99.90;;;;;;4994300;28;20233;-68
2023/05/05 04:31:27;;;;;;;5.57;3.80;;;9.70;99.90;;;;;;5001227;28;20172;-69
2023/05/05 04:33:53;;;;;;;3.23;2.93;;;9.80;99.90;;;;;;4997540;28;20306;-68
2023/05/05 04:36:18;;;;;;;8.17;3.60;;;9.90;99.90;;;;;;5001194;28;20554;-68
2023/05/05 04:38:44;;;;;;;7.40;3.77;;;9.90;99.90;;;;;;4997616;28;20191;-68
2023/05/05 04:41:10;;;;;;;6.30;3.63;;;10.00;99.90;;;;;;4996109;28;20622;-68
2023/05/05 04:43:36;;;;;;;5.00;3.63;;;10.00;99.90;;;;;;5012688;28;20448;-68
2023/05/05 04:46:01;;;;;;;5.20;3.43;;;10.10;99.90;;;;;;4998474;28;20443;-68
2023/05/05 04:48:27;;;;;;;7.00;3.33;;;10.20;99.90;;;;;;5004611;28;20264;-68
2023/05/05 04:50:52;;;;;;;6.23;2.73;;;10.20;99.90;;;;;;4997058;28;20212;-68
2023/05/05 04:53:18;;;;;;;3.50;3.20;;;10.30;99.90;;;;;;4996681;28;20214;-69
2023/05/05 04:55:44;;;;;;;8.17;3.57;;;10.30;99.90;;;;;;4997961;28;20206;-68
2023/05/05 04:58:10;;;;;;;6.03;3.50;;;10.30;99.90;;;;;;4997974;28;20400;-68
2023/05/05 05:00:36;;;;;;;10.60;3.70;;;10.40;99.90;;;;;;4999239;28;20188;-70
2023/05/05 05:03:02;;;;;;;3.60;3.17;;;10.40;99.90;;;;;;4996239;28;20799;-70
2023/05/05 05:05:28;;;;;;;6.23;3.27;;;10.50;99.90;;;;;;5004486;28;20442;-70
2023/05/05 05:07:54;;;;;;;4.20;3.20;;;10.50;99.90;;;;;;5003607;28;20434;-75
2023/05/05 05:10:19;;;;;;;5.07;3.10;;;10.70;99.90;;;;;;5000752;28;20244;-71
2023/05/05 05:12:47;;;;;;;7.33;3.50;;;10.80;99.90;;;;;;5003390;28;20278;-75
2023/05/05 05:15:13;;;;;;;4.70;3.27;;;11.00;99.90;;;;;;4984533;28;20318;-68
2023/05/05 05:17:39;;;;;;;4.63;3.20;;;11.50;99.90;;;;;;5002622;28;20909;-68
2023/05/05 05:20:06;;;;;;;6.50;4.00;;;11.90;99.90;;;;;;5004375;28;20195;-68
2023/05/05 05:22:31;;;;;;;10.83;4.00;;;12.30;99.90;;;;;;5004100;28;20439;-69
2023/05/05 05:24:57;;;;;;;3.20;2.90;;;12.70;99.90;;;;;;4999574;28;21094;-71
2023/05/05 05:27:23;;;;;;;5.83;2.80;;;13.00;99.90;;;;;;4998943;28;20260;-69
2023/05/05 05:29:48;;;;;;;3.97;3.50;;;13.30;99.90;;;;;;5002522;28;20236;-68
2023/05/05 05:32:14;;;;;;;5.13;3.10;;;13.30;99.90;;;;;;4997175;28;20216;-68
2023/05/05 05:34:39;;;;;;;5.67;3.70;;;13.40;99.90;;;;;;4999000;28;20216;-69
2023/05/05 05:37:05;;;;;;;7.23;4.37;;;13.70;99.90;;;;;;5004590;28;20189;-68
2023/05/05 05:39:31;;;;;;;5.63;3.57;;;14.00;99.90;;;;;;5000654;28;20209;-71
2023/05/05 05:41:56;;;;;;;7.77;4.50;;;14.10;99.90;;;;;;5010949;28;20275;-68
2023/05/05 05:44:22;;;;;;;6.23;3.50;;;14.50;99.90;;;;;;5021839;28;20201;-68
2023/05/05 05:46:47;;;;;;;4.93;3.57;;;14.60;99.90;;;;;;4999496;28;20189;-67
2023/05/05 05:49:15;;;;;;;5.10;3.67;;;14.70;99.90;;;;;;5002527;28;20257;-67
2023/05/05 05:51:40;;;;;;;5.83;4.00;;;14.90;99.90;;;;;;5001261;28;20551;-67
2023/05/05 05:54:06;;;;;;;13.73;4.40;;;15.10;99.90;;;;;;5002732;28;20456;-66
2023/05/05 05:56:31;;;;;;;9.97;3.87;;;14.80;99.90;;;;;;4999489;28;20606;-67
2023/05/05 05:58:57;;;;;;;6.20;3.47;;;14.90;99.90;;;;;;4998515;28;20186;-67
2023/05/05 06:01:23;;;;;;;5.60;3.40;;;14.90;99.90;;;;;;5001837;28;21056;-67
2023/05/05 06:03:48;;;;;;;5.73;2.97;;;15.20;99.90;;;;;;5002000;28;20202;-67
2023/05/05 06:06:14;;;;;;;8.00;4.53;;;15.50;99.90;;;;;;5000933;28;20571;-67
2023/05/05 06:08:39;;;;;;;5.80;3.73;;;15.60;99.90;;;;;;4999752;28;20194;-68
2023/05/05 06:11:05;;;;;;;4.20;3.00;;;16.00;99.90;;;;;;4994783;28;20217;-68
2023/05/05 06:13:31;;;;;;;7.57;4.03;;;15.90;99.60;;;;;;4999647;28;20284;-68
2023/05/05 06:15:56;;;;;;;7.47;3.20;;;15.80;99.90;;;;;;5001053;28;20196;-68
2023/05/05 06:18:22;;;;;;;9.43;3.53;;;16.10;99.20;;;;;;5000332;28;20191;-69
2023/05/05 06:20:51;;;;;;;9.13;3.83;;;15.20;99.50;;;;;;4995699;28;20199;-68
2023/05/05 06:23:17;;;;;;;8.43;3.90;;;15.30;99.50;;;;;;4997950;28;20292;-68
2023/05/05 06:25:42;;;;;;;7.93;3.63;;;15.10;99.50;;;;;;4996446;28;20451;-68
2023/05/05 06:28:08;;;;;;;4.30;3.17;;;15.00;99.20;;;;;;4999945;28;20192;-68
2023/05/05 06:30:34;;;;;;;7.87;4.17;;;14.80;99.60;;;;;;5004149;28;20572;-67
2023/05/05 06:33:00;;;;;;;6.63;3.30;;;15.00;99.50;;;;;;5000674;28;20483;-67
2023/05/05 06:35:26;;;;;;;6.83;3.50;;;15.00;99.60;;;;;;4999913;28;20956;-67
2023/05/05 06:37:51;;;;;;;7.10;5.03;;;15.60;99.40;;;;;;5001005;28;20190;-67
2023/05/05 06:40:17;;;;;;;6.80;3.27;;;16.10;98.30;;;;;;4998793;28;20237;-68
2023/05/05 06:42:42;;;;;;;3.50;3.20;;;16.50;97.60;;;;;;5000511;28;20176;-67
2023/05/05 06:45:08;;;;;;;5.80;4.13;;;16.50;97.10;;;;;;5001799;28;20449;-68
2023/05/05 06:47:34;;;;;;;11.30;4.90;;;16.70;96.50;;;;;;5001416;28;20187;-68
2023/05/05 06:50:00;;;;;;;4.20;3.47;;;16.50;96.50;;;;;;4999362;28;20222;-67
2023/05/05 06:52:25;;;;;;;5.90;3.97;;;16.10;97.00;;;;;;5002203;28;20621;-67
2023/05/05 06:54:51;;;;;;;4.23;2.80;;;16.00;97.10;;;;;;4997771;28;20215;-68
2023/05/05 06:57:17;;;;;;;4.73;3.50;;;16.60;96.70;;;;;;4999215;28;20187;-68
2023/05/05 06:59:42;;;;;;;6.67;3.80;;;17.30;96.10;;;;;;5000403;28;20642;-67
2023/05/05 07:02:08;;;;;;;7.50;3.60;;;18.40;94.70;;;;;;4999069;28;20180;-67
2023/05/05 07:04:34;;;;;;;5.10;3.43;;;19.20;93.00;;;;;;4998473;28;20278;-67
2023/05/05 07:07:00;;;;;;;7.13;3.90;;;19.10;92.10;;;;;;4998504;28;20708;-67
2023/05/05 07:09:25;;;;;;;4.93;3.40;;;19.20;91.50;;;;;;4983662;28;20257;-67
2023/05/05 07:11:51;;;;;;;5.60;3.20;;;18.80;91.50;;;;;;4995291;28;20741;-69
2023/05/05 07:14:16;;;;;;;5.90;3.57;;;18.50;92.00;;;;;;5000534;28;20562;-69
2023/05/05 07:16:42;;;;;;;6.30;3.93;;;18.20;91.70;;;;;;5000670;28;20190;-66
2023/05/05 07:19:07;;;;;;;4.37;3.20;;;17.60;92.30;;;;;;4999724;28;20617;-67
2023/05/05 07:21:34;;;;;;;9.70;4.13;;;17.30;92.40;;;;;;5001113;28;20191;-67
2023/05/05 07:24:01;;;;;;;6.80;3.77;;;16.70;93.60;;;;;;5003924;28;20933;-67
2023/05/05 07:26:27;;;;;;;16.83;4.07;;;16.80;93.70;;;;;;4996627;28;20551;-68
2023/05/05 07:28:54;;;;;;;3.83;3.27;;;17.00;93.40;;;;;;5000419;28;21091;-68
2023/05/05 07:31:20;;;;;;;4.77;3.30;;;17.10;93.40;;;;;;5002336;28;20514;-68
2023/05/05 07:33:46;;;;;;;9.17;3.40;;;17.30;93.20;;;;;;5000877;28;20506;-67
2023/05/05 07:36:12;;;;;;;8.97;3.33;;;17.70;93.00;;;;;;5002166;28;20878;-67
2023/05/05 07:38:37;;;;;;;8.50;3.67;;;18.00;92.30;;;;;;5006843;28;20221;-67
2023/05/05 07:41:03;;;;;;;9.93;3.90;;;17.60;92.40;;;;;;5009447;28;20488;-67
2023/05/05 07:43:29;;;;;;;4.87;3.33;;;17.70;92.50;;;;;;5007261;28;20197;-67
2023/05/05 07:45:55;;;;;;;3.70;3.30;;;18.30;92.20;;;;;;5006648;28;20213;-67
2023/05/05 07:48:20;;;;;;;7.70;4.00;;;18.50;92.00;;;;;;5002934;28;20213;-67
2023/05/05 07:50:46;;;;;;;9.83;5.00;;;18.60;91.10;;;;;;4999928;28;20738;-67
2023/05/05 07:53:11;;;;;;;7.97;3.93;;;18.90;90.80;;;;;;5000336;28;20197;-67
2023/05/05 07:55:37;;;;;;;5.20;4.43;;;18.60;90.70;;;;;;5001219;28;20180;-67
2023/05/05 07:58:02;;;;;;;3.90;3.07;;;18.80;90.70;;;;;;5001685;28;20561;-68
2023/05/05 08:00:28;;;;;;;9.17;4.10;;;19.30;90.10;;;;;;5002481;28;20182;-67
2023/05/05 08:02:54;;;;;;;4.33;3.57;;;19.10;90.20;;;;;;4999181;28;20207;-67
2023/05/05 08:05:20;;;;;;;4.90;3.90;;;19.70;90.10;;;;;;5000543;28;20184;-67
2023/05/05 08:07:45;;;;;;;8.13;3.80;;;19.90;88.90;;;;;;4999988;28;20183;-67
2023/05/05 08:10:11;;;;;;;4.27;3.87;;;19.80;89.90;;;;;;4999062;28;20200;-67
2023/05/05 08:12:37;;;;;;;7.00;3.60;;;20.00;88.70;;;;;;4999702;28;20177;-67
2023/05/05 08:15:04;;;;;;;5.90;4.37;;;20.00;88.50;;;;;;5000393;28;20283;-68
2023/05/05 08:17:41;;;;;;;5.57;3.60;;;19.70;88.40;;;;;;5003536;28;20464;-68
2023/05/05 08:20:07;;;;;;;7.77;3.60;;;19.80;89.90;;;;;;5008065;28;20412;-67
2023/05/05 08:22:34;;;;;;;6.23;3.43;;;20.00;87.90;;;;;;5010283;28;21067;-68
2023/05/05 08:25:00;;;;;;;8.33;3.90;;;19.40;87.40;;;;;;5010493;28;20417;-68
2023/05/05 08:27:26;;;;;;;3.80;3.27;;;19.20;89.20;;;;;;5009906;28;20410;-68
2023/05/05 08:29:52;;;;;;;8.10;4.03;;;19.10;89.70;;;;;;5012248;28;20461;-68
2023/05/05 08:32:17;;;;;;;7.13;3.70;;;19.60;88.10;;;;;;4987279;28;20679;-68
2023/05/05 08:34:43;;;;;;;7.67;4.77;;;19.60;86.70;;;;;;5016383;28;20243;-68
2023/05/05 08:37:08;;;;;;;5.20;4.40;;;19.90;86.80;;;;;;5009010;28;20279;-68
2023/05/05 08:39:34;;;;;;;8.53;3.40;;;20.00;86.30;;;;;;5014879;28;20669;-68
2023/05/05 08:42:00;;;;;;;5.13;3.50;;;20.00;86.00;;;;;;5012571;28;20183;-66
2023/05/05 08:44:27;;;;;;;7.93;4.40;;;20.20;85.80;;;;;;5023017;28;20202;-67
2023/05/05 08:46:53;;;;;;;7.80;3.50;;;20.50;85.50;;;;;;5017508;28;20186;-67
2023/05/05 08:49:20;;;;;;;5.90;4.53;;;20.40;85.60;;;;;;5020455;28;20498;-67
2023/05/05 08:51:47;;;;;;;11.17;3.90;;;20.40;84.00;;;;;;5013113;28;20829;-67
2023/05/05 08:54:18;;;;;;;8.63;3.93;;;20.40;84.00;;;;;;5014222;28;20547;-67
2023/05/05 08:56:48;;;;;;;6.63;3.77;;;20.40;84.50;;;;;;5018820;28;20402;-67
2023/05/05 08:59:15;;;;;;;6.23;4.10;;;20.40;84.50;;;;;;5018912;28;20420;-67
2023/05/05 09:01:41;;;;;;;6.57;4.00;;;20.60;83.70;;;;;;5015222;28;20469;-67
2023/05/05 09:04:08;;;;;;;5.73;4.20;;;20.50;83.90;;;;;;5014717;28;20512;-66
2023/05/05 09:06:34;;;;;;;4.53;3.97;;;20.30;83.80;;;;;;5019323;28;20459;-66
2023/05/05 09:09:00;;;;;;;5.03;4.00;;;20.20;84.40;;;;;;5018863;28;20523;-67
2023/05/05 09:11:26;;;;;;;13.20;5.50;;;20.00;85.40;;;;;;5015941;28;20519;-66
2023/05/05 09:13:53;;;;;;;5.13;3.73;;;20.10;85.10;;;;;;5012082;28;20441;-66
2023/05/05 09:16:19;;;;;;;15.50;4.27;;;20.20;84.40;;;;;;5015246;28;20509;-67
2023/05/05 09:18:44;;;;;;;6.10;3.77;;;20.20;86.30;;;;;;5010086;28;20432;-66
2023/05/05 09:21:25;;;;;;;6.10;4.37;;;20.40;85.10;;;;;;4996688;28;20184;-67
2023/05/05 09:24:04;;;;;;;8.00;4.10;;;20.60;85.70;;;;;;5007071;28;20208;-67
2023/05/05 09:26:33;;;;;;;7.03;4.20;;;20.90;84.40;;;;;;5003106;28;20415;-67
2023/05/05 09:28:59;;;;;;;9.10;3.93;;;21.10;84.10;;;;;;5008887;28;20414;-67
2023/05/05 09:31:26;;;;;;;10.53;5.80;;;21.30;83.70;;;;;;5021444;28;20477;-67
2023/05/05 09:33:51;;;;;;;5.00;3.13;;;20.40;85.10;;;;;;5011983;28;20463;-66
2023/05/05 09:36:17;;;;;;;6.07;3.80;;;20.90;85.30;;;;;;5020585;28;20419;-67
2023/05/05 09:39:03;;;;;;;4.33;3.20;;;21.00;85.20;;;;;;5016997;28;20200;-67
2023/05/05 09:41:39;;;;;;;5.93;4.53;;;21.30;84.10;;;;;;5006693;28;20176;-67
2023/05/05 09:44:05;;;;;;;5.77;3.73;;;20.70;84.40;;;;;;4988650;28;20447;-67
2023/05/05 09:46:31;;;;;;;4.60;3.63;;;20.70;84.90;;;;;;5019225;28;20931;-67
2023/05/05 09:49:17;;;;;;;4.83;3.80;;;20.90;84.70;;;;;;5022266;28;20771;-66
2023/05/05 09:51:46;;;;;;;5.93;3.80;;;20.80;83.80;;;;;;5014353;28;20479;-69
2023/05/05 09:54:22;;;;;;;5.80;3.77;;;20.80;85.00;;;;;;5011308;28;20451;-66
2023/05/05 09:56:47;;;;;;;4.50;3.67;;;20.10;84.70;;;;;;5007740;28;20501;-66
2023/05/05 09:59:13;;;;;;;3.83;3.50;;;19.70;86.20;;;;;;5020794;28;20438;-66
2023/05/05 10:01:42;;;;;;;8.07;3.87;;;19.70;86.80;;;;;;5008940;28;20224;-66
2023/05/05 10:04:21;;;;;;;5.67;3.30;;;19.60;87.40;;;;;;5016596;28;20214;-67
2023/05/05 10:06:46;;;;;;;6.67;3.60;;;19.50;85.90;;;;;;5007890;28;20460;-66
2023/05/05 10:09:13;;;;;;;5.97;3.60;;;19.60;86.50;;;;;;5011214;28;20538;-69
2023/05/05 10:11:41;;;;;;;6.63;4.13;;;19.60;84.70;;;;;;5023384;28;20213;-68
2023/05/05 10:14:07;;;;;;;5.70;3.53;;;19.50;83.80;;;;;;5018615;28;20433;-68
2023/05/05 10:16:34;;;;;;;12.40;2.93;;;19.60;85.40;;;;;;5014686;28;20465;-66
2023/05/05 10:19:02;;;;;;;5.40;3.47;;;19.60;86.00;;;;;;5013452;28;20405;-66
2023/05/05 10:21:32;;;;;;;6.40;3.53;;;19.60;85.90;;;;;;4989628;28;20428;-66
2023/05/05 10:24:08;;;;;;;5.80;3.40;;;19.40;86.20;;;;;;5012506;28;20434;-68
2023/05/05 10:26:39;;;;;;;9.63;3.63;;;19.10;87.10;;;;;;5001412;28;20440;-66
2023/05/05 10:29:13;;;;;;;5.93;4.27;;;19.20;87.10;;;;;;5019989;28;20417;-67
2023/05/05 10:31:49;;;;;;;3.90;3.50;;;19.60;87.40;;;;;;5007975;28;20413;-67
2023/05/05 10:34:24;;;;;;;4.73;4.10;;;19.90;85.60;;;;;;5013216;28;20964;-67
2023/05/05 10:36:50;;;;;;;8.70;4.30;;;19.70;85.40;;;;;;5009872;28;20477;-67
2023/05/05 10:39:18;;;;;;;5.00;3.87;;;19.50;85.20;;;;;;5020545;28;20482;-68
2023/05/05 10:41:46;;;;;;;6.27;3.50;;;19.50;86.30;;;;;;5010253;28;20428;-66
2023/05/05 10:44:13;;;;;;;5.23;3.10;;;19.50;86.30;;;;;;5017367;28;20430;-66
2023/05/05 10:46:40;;;;;;;4.10;3.53;;;19.50;87.10;;;;;;5007489;28;20487;-68
2023/05/05 10:49:14;;;;;;;5.80;3.17;;;19.40;85.90;;;;;;5020857;28;20548;-68
2023/05/05 10:52:02;;;;;;;5.60;3.50;;;19.40;86.30;;;;;;5019745;28;20464;-68
2023/05/05 10:54:51;;;;;;;4.53;4.10;;;19.30;87.10;;;;;;5010080;28;20465;-67
2023/05/05 10:57:22;;;;;;;4.87;3.70;;;19.50;85.60;;;;;;5019921;28;20894;-67
2023/05/05 10:59:48;;;;;;;6.20;4.20;;;19.60;86.60;;;;;;5007778;28;20415;-68
2023/05/05 11:02:20;;;;;;;7.43;2.93;;;19.40;87.30;;;;;;5019812;28;20411;-67
2023/05/05 11:05:04;;;;;;;5.37;3.17;;;19.40;85.50;;;;;;5015345;28;20199;-67
2023/05/05 11:07:30;;;;;;;6.60;3.33;;;19.30;85.20;;;;;;5008267;28;20430;-67
2023/05/05 11:10:02;;;;;;;3.93;3.40;;;19.60;85.60;;;;;;5015162;28;20451;-67
2023/05/05 11:12:29;;;;;;;7.03;3.17;;;19.60;85.50;;;;;;5015034;28;20411;-67
2023/05/05 11:15:26;;;;;;;4.87;3.00;;;19.70;85.00;;;;;;5014370;28;20849;-67
2023/05/05 11:17:56;;;;;;;6.70;3.87;;;19.70;84.90;;;;;;5013270;28;20422;-67
2023/05/05 11:20:39;;;;;;;4.90;3.00;;;19.40;84.80;;;;;;5014907;28;20509;-67
2023/05/05 11:23:05;;;;;;;6.70;3.47;;;19.70;85.10;;;;;;4996208;28;20437;-67
2023/05/05 11:25:37;;;;;;;6.30;3.33;;;19.70;84.20;;;;;;5021728;28;20410;-67
2023/05/05 11:28:15;;;;;;;4.00;3.00;;;19.80;84.30;;;;;;5012755;28;20179;-67
2023/05/05 11:31:03;;;;;;;5.33;3.43;;;19.90;84.00;;;;;;5008230;28;20465;-67
2023/05/05 11:33:39;;;;;;;7.10;3.70;;;19.80;83.80;;;;;;5011914;28;20981;-68
2023/05/05 11:36:09;;;;;;;4.17;3.77;;;19.60;82.90;;;;;;5011968;28;20412;-68
2023/05/05 11:38:38;;;;;;;6.13;3.30;;;19.60;82.70;;;;;;5018527;28;20409;-67
2023/05/05 11:41:31;;;;;;;3.90;3.30;;;19.70;83.00;;;;;;5016655;28;20407;-67
2023/05/05 11:44:28;;;;;;;3.17;2.87;;;19.70;83.00;;;;;;5017476;28;20433;-67
2023/05/05 11:46:53;;;;;;;5.03;3.40;;;19.70;83.10;;;;;;5019471;28;20961;-71
2023/05/05 11:49:35;;;;;;;4.70;3.33;;;19.80;83.60;;;;;;5020433;28;20422;-69
2023/05/05 11:52:02;;;;;;;3.50;2.70;;;19.70;84.40;;;;;;5013585;28;20169;-69
2023/05/05 11:54:28;;;;;;;5.50;3.50;;;19.80;84.10;;;;;;5014552;28;20528;-69
2023/05/05 11:56:55;;;;;;;3.27;2.80;;;19.70;84.40;;;;;;4995480;28;20783;-67
2023/05/05 11:59:21;;;;;;;6.47;2.70;;;19.90;84.10;;;;;;5004943;28;20493;-68
2023/05/05 12:01:47;;;;;;;7.30;2.60;;;20.20;82.70;;;;;;5013794;28;20424;-67
2023/05/05 12:04:14;;;;;;;3.80;3.07;;;20.30;81.60;;;;;;5011394;28;20437;-68
2023/05/05 12:06:40;;;;;;;5.37;3.27;;;20.30;81.00;;;;;;5020241;28;20414;-69
2023/05/05 12:09:17;;;;;;;7.00;2.97;;;20.40;81.80;;;;;;5014394;28;20412;-67
2023/05/05 12:11:49;;;;;;;4.23;2.67;;;20.20;81.70;;;;;;5010318;28;20781;-67
2023/05/05 12:14:15;;;;;;;3.90;3.20;;;20.00;80.30;;;;;;5018974;28;20472;-67
2023/05/05 12:16:52;;;;;;;3.07;2.80;;;19.80;80.90;;;;;;5012760;28;20499;-68
2023/05/05 12:19:17;;;;;;;3.83;2.70;;;19.90;81.30;;;;;;5023723;28;20231;-69
2023/05/05 12:21:44;;;;;;;7.27;3.17;;;20.10;80.40;;;;;;5005331;28;20490;-69
2023/05/05 12:24:12;;;;;;;4.47;2.63;;;20.30;80.20;;;;;;5021894;28;20204;-68
2023/05/05 12:26:38;;;;;;;3.13;2.40;;;20.20;81.40;;;;;;5021754;28;20423;-69
2023/05/05 12:29:04;;;;;;;3.93;2.67;;;20.30;81.40;;;;;;5016444;28;20411;-68
2023/05/05 12:31:47;;;;;;;4.37;2.93;;;20.40;82.40;;;;;;5016122;28;20538;-70
2023/05/05 12:34:14;;;;;;;6.03;2.63;;;20.10;82.10;;;;;;5023481;28;20214;-69
2023/05/05 12:36:41;;;;;;;4.30;2.60;;;20.00;82.50;;;;;;5005242;28;20927;-69
2023/05/05 12:39:07;;;;;;;4.70;3.00;;;19.90;82.30;;;;;;5021069;28;20492;-69
2023/05/05 12:41:33;;;;;;;4.90;2.73;;;19.90;83.10;;;;;;5012848;28;20434;-69
2023/05/05 12:44:00;;;;;;;13.23;3.37;;;20.00;83.20;;;;;;5022354;28;20759;-70
2023/05/05 12:46:28;;;;;;;5.03;2.80;;;20.00;83.40;;;;;;5023521;28;20416;-68
2023/05/05 12:49:04;;;;;;;7.07;2.40;;;20.00;82.90;;;;;;5020085;28;20470;-69
2023/05/05 12:51:31;;;;;;;5.87;3.27;;;20.00;83.00;;;;;;5017774;28;20454;-68
2023/05/05 12:54:02;;;;;;;15.80;10.50;;;20.10;84.20;;;;;;5017695;28;20431;-66
2023/05/05 12:56:35;;;;;;;14.63;11.47;;;20.00;84.90;;;;;;5024898;28;20407;-67